Pontiac, Michigan
Current Conditions -  °F | °C
As of 8:46 PM on Thursday 27 Nov 2014 (Local Time) from KPTK Reporting Station
Light Snow Light Snow  
Wind Chill: 13°   Ceiling: 2900
Heat Index: 25°   Visibility: 9mi
Dew Point: 14°   Wind: 15mph
Humidity: 63%   Direction: 320°NW
Pressure: 30.24"   Gusts: NA
Location:  42.64°N, 83.29°W
Report Text: KPTK 280146Z 32013KT 9SM -SN BKN029 BKN035 BKN060 M04/M10 A3024 RMK AO2 P0000 T10391100
Loading
Personal Weather Stations






























Interactive Weather Map New forecast layout! Learn more

10-Day Weather Forecast

Advertisements
Track Severe Weather on mobile